Map

Track Data

SID SEASON NUMBER BASIN SUBBASIN NAME ISO_TIME NATURE LAT LON WMO_WIND WMO_PRES WMO_AGENCY TRACK_TYPE DIST2LAND LANDFALL IFLAG USA_AGENCY USA_ATCF_ID USA_LAT USA_LON USA_RECORD USA_STATUS USA_WIND USA_PRES USA_SSHS USA_R34_NE USA_R34_SE USA_R34_SW USA_R34_NW USA_R50_NE USA_R50_SE USA_R50_SW USA_R50_NW USA_R64_NE USA_R64_SE USA_R64_SW USA_R64_NW USA_POCI USA_ROCI USA_RMW USA_EYE TOKYO_LAT TOKYO_LON TOKYO_GRADE TOKYO_WIND TOKYO_PRES TOKYO_R50_DIR TOKYO_R50_LONG TOKYO_R50_SHORT TOKYO_R30_DIR TOKYO_R30_LONG TOKYO_R30_SHORT TOKYO_LAND CMA_LAT CMA_LON CMA_CAT CMA_WIND CMA_PRES HKO_LAT HKO_LON HKO_CAT HKO_WIND HKO_PRES NEWDELHI_LAT NEWDELHI_LON NEWDELHI_GRADE NEWDELHI_WIND NEWDELHI_PRES NEWDELHI_CI NEWDELHI_DP NEWDELHI_POCI REUNION_LAT REUNION_LON REUNION_TYPE REUNION_WIND REUNION_PRES REUNION_TNUM REUNION_CI REUNION_RMW REUNION_R34_NE REUNION_R34_SE REUNION_R34_SW REUNION_R34_NW REUNION_R50_NE REUNION_R50_SE REUNION_R50_SW REUNION_R50_NW REUNION_R64_NE REUNION_R64_SE REUNION_R64_SW REUNION_R64_NW BOM_LAT BOM_LON BOM_TYPE BOM_WIND BOM_PRES BOM_TNUM BOM_CI BOM_RMW BOM_R34_NE BOM_R34_SE BOM_R34_SW BOM_R34_NW BOM_R50_NE BOM_R50_SE BOM_R50_SW BOM_R50_NW BOM_R64_NE BOM_R64_SE BOM_R64_SW BOM_R64_NW BOM_ROCI BOM_POCI BOM_EYE BOM_POS_METHOD BOM_PRES_METHOD NADI_LAT NADI_LON NADI_CAT NADI_WIND NADI_PRES WELLINGTON_LAT WELLINGTON_LON WELLINGTON_WIND WELLINGTON_PRES DS824_LAT DS824_LON DS824_STAGE DS824_WIND DS824_PRES TD9636_LAT TD9636_LON TD9636_STAGE TD9636_WIND TD9636_PRES TD9635_LAT TD9635_LON TD9635_WIND TD9635_PRES TD9635_ROCI NEUMANN_LAT NEUMANN_LON NEUMANN_CLASS NEUMANN_WIND NEUMANN_PRES MLC_LAT MLC_LON MLC_CLASS MLC_WIND MLC_PRES USA_GUST BOM_GUST BOM_GUST_PER REUNION_GUST REUNION_GUST_PER USA_SEAHGT USA_SEARAD_NE USA_SEARAD_SE USA_SEARAD_SW USA_SEARAD_NW STORM_SPEED STORM_DIR
1872039S12085 1872 6 SI MM NOT_NAMED 1872-02-07 18:00:00 NR -12.3000 85.2000 main 1921 1921 __________O___ -1 -12.3000 85.2000 7 6 256
1872039S12085 1872 6 SI MM NOT_NAMED 1872-02-07 21:00:00 NR -12.3669 84.9233 main 1954 1954 __________P___ -1 -12.3669 84.9233 7 6 256
1872039S12085 1872 6 SI MM NOT_NAMED 1872-02-08 00:00:00 NR -12.4370 84.6173 main 1980 1980 __________P___ -1 -12.4370 84.6173 7 7 257
1872039S12085 1872 6 SI MM NOT_NAMED 1872-02-08 03:00:00 NR -12.5137 84.2527 main 2013 2013 __________P___ -1 -12.5137 84.2527 7 8 258
1872039S12085 1872 6 SI MM NOT_NAMED 1872-02-08 06:00:00 NR -12.6000 83.8000 main 2064 2064 __________O___ -1 -12.6000 83.8000 7 10 259
1872039S12085 1872 6 SI MM NOT_NAMED 1872-02-08 09:00:00 NR -12.6974 83.2420 main 2103 2099 __________P___ -1 -12.6974 83.2420 7 12 260
1872039S12085 1872 6 SI MM NOT_NAMED 1872-02-08 12:00:00 NR -12.8007 82.6102 main 2106 2103 __________P___ -1 -12.8007 82.6102 7 13 261
1872039S12085 1872 6 SI MM NOT_NAMED 1872-02-08 15:00:00 NR -12.9036 81.9482 main 2111 2109 __________P___ -1 -12.9036 81.9482 7 13 261
1872039S12085 1872 6 SI MM NOT_NAMED 1872-02-08 18:00:00 NR -13.0000 81.3000 main 2118 2117 __________O___ -1 -13.0000 81.3000 7 12 262
1872039S12085 1872 6 SI MM NOT_NAMED 1872-02-08 21:00:00 NR -13.0734 80.7322 main 2128 2128 __________P___ -1 -13.0734 80.7322 7 11 263
1872039S12085 1872 6 SI MM NOT_NAMED 1872-02-09 00:00:00 NR -13.1416 80.1845 main 2129 2129 __________P___ -1 -13.1416 80.1845 7 11 262
1872039S12085 1872 6 SI MM NOT_NAMED 1872-02-09 03:00:00 NR -13.2141 79.6446 main 2142 2142 __________P___ -1 -13.2141 79.6446 7 11 261
1872039S12085 1872 6 SI MM NOT_NAMED 1872-02-09 06:00:00 NR -13.3000 79.1000 main 2157 2157 __________O___ -1 -13.3000 79.1000 7 11 260
1872039S12085 1872 6 SI MM NOT_NAMED 1872-02-09 09:00:00 NR -13.4147 78.5121 main 2174 2174 __________P___ -1 -13.4147 78.5121 7 12 258
1872039S12085 1872 6 SI MM NOT_NAMED 1872-02-09 12:00:00 NR -13.5426 77.9202 main 2193 2193 __________P___ -1 -13.5426 77.9202 7 12 257
1872039S12085 1872 6 SI MM NOT_NAMED 1872-02-09 15:00:00 NR -13.6741 77.3433 main 2199 2145 __________P___ -1 -13.6741 77.3433 7 11 257
1872039S12085 1872 6 SI MM NOT_NAMED 1872-02-09 18:00:00 NR -13.8000 76.8000 main 2145 2091 __________O___ -1 -13.8000 76.8000 7 10 257
1872039S12085 1872 6 SI MM NOT_NAMED 1872-02-09 21:00:00 NR -13.9065 76.3219 main 2091 2046 __________P___ -1 -13.9065 76.3219 7 9 257
1872039S12085 1872 6 SI MM NOT_NAMED 1872-02-10 00:00:00 NR -14.0065 75.8771 main 2046 2002 __________P___ -1 -14.0065 75.8771 7 9 257
1872039S12085 1872 6 SI MM NOT_NAMED 1872-02-10 03:00:00 NR -14.1034 75.4438 main 1992 1948 __________P___ -1 -14.1034 75.4438 7 9 257
1872039S12085 1872 6 SI MM NOT_NAMED 1872-02-10 06:00:00 NR -14.2000 75.0000 main 1948 1894 __________O___ -1 -14.2000 75.0000 7 9 258
1872039S12085 1872 6 SI MM NOT_NAMED 1872-02-10 09:00:00 NR -14.3000 74.5021 main 1894 1840 __________P___ -1 -14.3000 74.5021 7 10 258
1872039S12085 1872 6 SI MM NOT_NAMED 1872-02-10 12:00:00 NR -14.4000 73.9924 main 1840 1786 __________P___ -1 -14.4000 73.9924 7 10 259
1872039S12085 1872 6 SI MM NOT_NAMED 1872-02-10 15:00:00 NR -14.5000 73.4865 main 1786 1733 __________P___ -1 -14.5000 73.4865 7 10 258
1872039S12085 1872 6 SI MM NOT_NAMED 1872-02-10 18:00:00 NR -14.6000 73.0000 main 1733 1689 __________O___ -1 -14.6000 73.0000 7 9 258
1872039S12085 1872 6 SI MM NOT_NAMED 1872-02-10 21:00:00 NR -14.6996 72.5493 main 1679 1635 __________P___ -1 -14.6996 72.5493 7 9 257
1872039S12085 1872 6 SI MM NOT_NAMED 1872-02-11 00:00:00 NR -14.7995 72.1198 main 1635 1591 __________P___ -1 -14.7995 72.1198 7 8 256
1872039S12085 1872 6 SI MM NOT_NAMED 1872-02-11 03:00:00 NR -14.8997 71.7055 main 1591 1547 __________P___ -1 -14.8997 71.7055 7 8 256
1872039S12085 1872 6 SI MM NOT_NAMED 1872-02-11 06:00:00 NR -15.0000 71.3000 main 1547 1504 __________O___ -1 -15.0000 71.3000 7 8 256
1872039S12085 1872 6 SI MM NOT_NAMED 1872-02-11 09:00:00 NR -15.0957 70.8926 main 1504 1460 __________P___ -1 -15.0957 70.8926 7 8 256
1872039S12085 1872 6 SI MM NOT_NAMED 1872-02-11 12:00:00 NR -15.1921 70.4922 main 1460 1416 __________P___ -1 -15.1921 70.4922 7 8 256
1872039S12085 1872 6 SI MM NOT_NAMED 1872-02-11 15:00:00 NR -15.2925 70.0957 main 1416 1373 __________P___ -1 -15.2925 70.0957 7 8 255
1872039S12085 1872 6 SI MM NOT_NAMED 1872-02-11 18:00:00 NR -15.4000 69.7000 main 1373 1339 __________O___ -1 -15.4000 69.7000 7 8 253
1872039S12085 1872 6 SI MM NOT_NAMED 1872-02-11 21:00:00 NR -15.5131 69.3322 main 1329 1295 __________P___ -1 -15.5131 69.3322 7 8 252
1872039S12085 1872 6 SI MM NOT_NAMED 1872-02-12 00:00:00 NR -15.6339 68.9595 main 1295 1247 __________P___ -1 -15.6339 68.9595 7 8 251
1872039S12085 1872 6 SI MM NOT_NAMED 1872-02-12 03:00:00 NR -15.7629 68.5571 main 1247 1194 __________P___ -1 -15.7629 68.5571 7 9 252
1872039S12085 1872 6 SI MM NOT_NAMED 1872-02-12 06:00:00 NR -15.9000 68.1000 main 1194 1141 __________O___ -1 -15.9000 68.1000 7 10 254
1872039S12085 1872 6 SI MM NOT_NAMED 1872-02-12 09:00:00 NR -16.0392 67.5413 main 1131 1074 __________P___ -1 -16.0392 67.5413 7 12 256
1872039S12085 1872 6 SI MM NOT_NAMED 1872-02-12 12:00:00 NR -16.1857 66.9300 main 1064 1002 __________P___ -1 -16.1857 66.9300 7 12 256
1872039S12085 1872 6 SI MM NOT_NAMED 1872-02-12 15:00:00 NR -16.3392 66.3037 main 1002 935 __________P___ -1 -16.3392 66.3037 7 12 255
1872039S12085 1872 6 SI MM NOT_NAMED 1872-02-12 18:00:00 NR -16.5000 65.7000 main 935 877 __________O___ -1 -16.5000 65.7000 7 11 253
1872039S12085 1872 6 SI MM NOT_NAMED 1872-02-12 21:00:00 NR -16.6627 65.1870 main 877 825 __________P___ -1 -16.6627 65.1870 7 10 251
1872039S12085 1872 6 SI MM NOT_NAMED 1872-02-13 00:00:00 NR -16.8336 64.6993 main 825 767 __________P___ -1 -16.8336 64.6993 7 10 249
1872039S12085 1872 6 SI MM NOT_NAMED 1872-02-13 03:00:00 NR -17.0127 64.2119 main 767 710 __________P___ -1 -17.0127 64.2119 7 10 249
1872039S12085 1872 6 SI MM NOT_NAMED 1872-02-13 06:00:00 NR -17.2000 63.7000 main 710 653 __________O___ -1 -17.2000 63.7000 7 11 250
1872039S12085 1872 6 SI MM NOT_NAMED 1872-02-13 09:00:00 NR -17.3970 63.1166 main 643 577 __________P___ -1 -17.3970 63.1166 7 12 251
1872039S12085 1872 6 SI MM NOT_NAMED 1872-02-13 12:00:00 NR -17.6002 62.5076 main 577 511 __________P___ -1 -17.6002 62.5076 7 12 251
1872039S12085 1872 6 SI MM NOT_NAMED 1872-02-13 15:00:00 NR -17.8032 61.8947 main 511 445 __________P___ -1 -17.8032 61.8947 7 12 251
1872039S12085 1872 6 SI MM NOT_NAMED 1872-02-13 18:00:00 NR -18.0000 61.3000 main 445 388 __________O___ -1 -18.0000 61.3000 7 12 251
1872039S12085 1872 6 SI MM NOT_NAMED 1872-02-13 21:00:00 NR -18.1817 60.7409 main 380 330 __________P___ -1 -18.1817 60.7409 7 11 251
1872039S12085 1872 6 SI MM NOT_NAMED 1872-02-14 00:00:00 NR -18.3569 60.2045 main 324 275 __________P___ -1 -18.3569 60.2045 7 11 251
1872039S12085 1872 6 SI MM NOT_NAMED 1872-02-14 03:00:00 NR -18.5287 59.6909 main 275 221 __________P___ -1 -18.5287 59.6909 7 10 250
1872039S12085 1872 6 SI MM NOT_NAMED 1872-02-14 06:00:00 NR -18.7000 59.2000 main 221 176 __________O___ -1 -18.7000 59.2000 7 10 249
1872039S12085 1872 6 SI MM NOT_NAMED 1872-02-14 09:00:00 NR -18.8702 58.7360 main 170 138 __________P___ -1 -18.8702 58.7360 7 9 248
1872039S12085 1872 6 SI MM NOT_NAMED 1872-02-14 12:00:00 NR -19.0415 58.2918 main 138 102 __________P___ -1 -19.0415 58.2918 7 9 247
1872039S12085 1872 6 SI MM NOT_NAMED 1872-02-14 15:00:00 NR -19.2171 57.8516 main 102 78 __________P___ -1 -19.2171 57.8516 7 9 247
1872039S12085 1872 6 SI MM NOT_NAMED 1872-02-14 18:00:00 NR -19.4000 57.4000 main 78 70 __________O___ -1 -19.4000 57.4000 7 10 247
1872039S12085 1872 6 SI MM NOT_NAMED 1872-02-14 21:00:00 NR -19.6054 56.8742 main 84 84 __________P___ -1 -19.6054 56.8742 7 11 247
1872039S12085 1872 6 SI MM NOT_NAMED 1872-02-15 00:00:00 NR -19.8157 56.3407 main 127 113 __________P___ -1 -19.8157 56.3407 7 11 247
1872039S12085 1872 6 SI MM NOT_NAMED 1872-02-15 03:00:00 NR -20.0180 55.8367 main 112 89 __________P___ -1 -20.0180 55.8367 7 10 246
1872039S12085 1872 6 SI MM NOT_NAMED 1872-02-15 06:00:00 NR -20.2000 55.4000 main 89 78 __________O___ -1 -20.2000 55.4000 7 8 246
1872039S12085 1872 6 SI MM NOT_NAMED 1872-02-15 09:00:00 NR -20.3376 55.0814 main 81 70 __________P___ -1 -20.3376 55.0814 7 6 244
1872039S12085 1872 6 SI MM NOT_NAMED 1872-02-15 12:00:00 NR -20.4564 54.8315 main 76 76 __________P___ -1 -20.4564 54.8315 7 5 242
1872039S12085 1872 6 SI MM NOT_NAMED 1872-02-15 15:00:00 NR -20.5721 54.6159 main 83 83 __________P___ -1 -20.5721 54.6159 7 5 239
1872039S12085 1872 6 SI MM NOT_NAMED 1872-02-15 18:00:00 NR -20.7000 54.4000 main 94 94 __________O___ -1 -20.7000 54.4000 7 5 238
1872039S12085 1872 6 SI MM NOT_NAMED 1872-02-15 21:00:00 NR -20.8524 54.1320 main 116 116 __________P___ -1 -20.8524 54.1320 7 6 238
1872039S12085 1872 6 SI MM NOT_NAMED 1872-02-16 00:00:00 NR -21.0199 53.8573 main 135 135 __________P___ -1 -21.0199 53.8573 7 6 236
1872039S12085 1872 6 SI MM NOT_NAMED 1872-02-16 03:00:00 NR -21.2024 53.5788 main 166 166 __________P___ -1 -21.2024 53.5788 7 6 234
1872039S12085 1872 6 SI MM NOT_NAMED 1872-02-16 06:00:00 NR -21.4000 53.3000 main 199 199 __________O___ -1 -21.4000 53.3000 7 7 232
1872039S12085 1872 6 SI MM NOT_NAMED 1872-02-16 09:00:00 NR -21.6147 53.0129 main 234 234 __________P___ -1 -21.6147 53.0129 7 7 230
1872039S12085 1872 6 SI MM NOT_NAMED 1872-02-16 12:00:00 NR -21.8425 52.7276 main 270 270 __________P___ -1 -21.8425 52.7276 7 7 228
1872039S12085 1872 6 SI MM NOT_NAMED 1872-02-16 15:00:00 NR -22.0741 52.4535 main 300 300 __________P___ -1 -22.0741 52.4535 7 7 227
1872039S12085 1872 6 SI MM NOT_NAMED 1872-02-16 18:00:00 NR -22.3000 52.2000 main 337 337 __________O___ -1 -22.3000 52.2000 7 6 227
1872039S12085 1872 6 SI MM NOT_NAMED 1872-02-16 21:00:00 NR -22.4825 51.9858 main 365 365 __________P___ -1 -22.4825 51.9858 7 5 226
1872039S12085 1872 6 SI MM NOT_NAMED 1872-02-17 00:00:00 NR -22.6621 51.7914 main 383 367 __________P___ -1 -22.6621 51.7914 7 5 223
1872039S12085 1872 6 SI MM NOT_NAMED 1872-02-17 03:00:00 NR -22.8607 51.6013 main 370 355 __________P___ -1 -22.8607 51.6013 7 6 219
1872039S12085 1872 6 SI MM NOT_NAMED 1872-02-17 06:00:00 NR -23.1000 51.4000 main 359 349 __________O___ -1 -23.1000 51.4000 7 7 219
1872039S12085 1872 6 SI MM NOT_NAMED 1872-02-17 09:00:00 NR -23.3909 51.1404 main 341 326 __________P___ -1 -23.3909 51.1404 7 8 218
1872039S12085 1872 6 SI MM NOT_NAMED 1872-02-17 12:00:00 NR -23.7254 50.8707 main 327 305 __________P___ -1 -23.7254 50.8707 7 9 214
1872039S12085 1872 6 SI MM NOT_NAMED 1872-02-17 15:00:00 NR -24.0971 50.6155 main 305 296 __________P___ -1 -24.0971 50.6155 7 9 209
1872039S12085 1872 6 SI MM NOT_NAMED 1872-02-17 18:00:00 NR -24.5000 50.4000 main 299 284 __________O___ -1 -24.5000 50.4000 7 8 210
1872039S12085 1872 6 SI MM NOT_NAMED 1872-02-17 21:00:00 NR -24.7832 50.1790 main 287 276 __________P___ -1 -24.7832 50.1790 7 7 210
1872039S12085 1872 6 SI MM NOT_NAMED 1872-02-18 00:00:00 NR -25.1150 50.0115 main 280 280 __________P___ -1 -25.1150 50.0115 7 8 195
1872039S12085 1872 6 SI MM NOT_NAMED 1872-02-18 03:00:00 NR -25.5893 49.9380 main 289 289 __________P___ -1 -25.5893 49.9380 7 12 0
1872039S12085 1872 6 SI MM NOT_NAMED 1872-02-18 06:00:00 NR -26.3000 50.0000 main 324 324 __________O___ -1 -26.3000 50.0000 7 19 173
1872039S12085 1872 6 SI MM NOT_NAMED 1872-02-18 09:00:00 NR -27.4354 50.1738 main 409 409 __________P___ -1 -27.4354 50.1738 7 25 170
1872039S12085 1872 6 SI MM NOT_NAMED 1872-02-18 12:00:00 NR -28.7929 50.4987 main 539 539 __________P___ -1 -28.7929 50.4987 7 29 166
1872039S12085 1872 6 SI MM NOT_NAMED 1872-02-18 15:00:00 NR -30.2039 50.9747 main 692 692 __________P___ -1 -30.2039 50.9747 7 29 161
1872039S12085 1872 6 SI MM NOT_NAMED 1872-02-18 18:00:00 NR -31.5000 51.6000 main 844 844 __________O___ -1 -31.5000 51.6000 7 26 153
1872039S12085 1872 6 SI MM NOT_NAMED 1872-02-18 21:00:00 NR -32.5527 52.3651 main 987 987 __________P___ -1 -32.5527 52.3651 7 23 144
1872039S12085 1872 6 SI MM NOT_NAMED 1872-02-19 00:00:00 NR -33.3914 53.2420 main 1103 1103 __________P___ -1 -33.3914 53.2420 7 22 135
1872039S12085 1872 6 SI MM NOT_NAMED 1872-02-19 03:00:00 NR -34.0844 54.1979 main 1220 1220 __________P___ -1 -34.0844 54.1979 7 21 129
1872039S12085 1872 6 SI MM NOT_NAMED 1872-02-19 06:00:00 NR -34.7000 55.2000 main 1329 __________O___ -1 -34.7000 55.2000 7 21 127

About IBTrACS Database

This database is a web-friendly format of International Best Track Archive for Climate Stewardship (IBTrACS), a global best track data archive curated by NOAA dating back to 1842.

Updated: 2021-10-21